createdAt,value
2023-01-08T00:01:18.667Z,4.67
2023-01-08T00:03:20.341Z,4.48
2023-01-08T00:05:21.362Z,4.55
2023-01-08T00:07:22.509Z,4.65
2023-01-08T00:09:24.390Z,4.52
2023-01-08T00:11:26.218Z,4.41
2023-01-08T00:13:28.210Z,4.73
2023-01-08T00:15:29.926Z,4.68
2023-01-08T00:17:31.246Z,4.53
2023-01-08T00:19:32.534Z,4.99
2023-01-08T00:21:34.161Z,5.19
2023-01-08T00:23:35.170Z,5.16
2023-01-08T00:25:36.772Z,5.24
2023-01-08T00:27:37.742Z,5.32
2023-01-08T00:29:39.208Z,5.13
2023-01-08T00:31:40.333Z,4.88
2023-01-08T00:33:42.165Z,4.75
2023-01-08T00:35:43.912Z,4.75
2023-01-08T00:37:45.077Z,4.92
2023-01-08T00:39:46.069Z,4.87
2023-01-08T00:41:47.611Z,4.91
2023-01-08T00:43:48.893Z,5
2023-01-08T00:45:50.734Z,5.12
2023-01-08T00:47:51.830Z,5.35
2023-01-08T00:49:53.375Z,5.18
2023-01-08T00:51:54.657Z,5.44
2023-01-08T00:53:55.885Z,5.77
2023-01-08T00:55:57.338Z,5.75
2023-01-08T00:57:58.416Z,5.66
2023-01-08T00:59:59.472Z,5.67
2023-01-08T01:02:01.381Z,5.7
2023-01-08T01:04:03.024Z,5.86
2023-01-08T01:06:04.167Z,6.03
2023-01-08T01:08:05.489Z,5.66
2023-01-08T01:10:07.264Z,5.49
2023-01-08T01:12:08.380Z,5.66
2023-01-08T01:14:10.039Z,5.62
2023-01-08T01:16:11.347Z,5.77
2023-01-08T01:18:13.136Z,5.25
2023-01-08T01:20:14.346Z,4.97
2023-01-08T01:22:15.422Z,4.84
2023-01-08T01:24:16.905Z,4.88
2023-01-08T01:26:17.827Z,4.39
2023-01-08T01:28:19.320Z,4.28
2023-01-08T01:30:21.242Z,4.29
2023-01-08T01:32:22.295Z,4.33
2023-01-08T01:34:23.364Z,4.49
2023-01-08T01:36:24.948Z,5.07
2023-01-08T01:38:26.484Z,4.66
2023-01-08T01:40:28.156Z,4.74
2023-01-08T01:44:31.540Z,4.54
2023-01-08T01:46:33.180Z,4.69
2023-01-08T01:48:34.718Z,4.24
2023-01-08T01:50:36.489Z,4.39
2023-01-08T01:52:37.961Z,4.65
2023-01-08T01:54:39.811Z,4.27
2023-01-08T01:56:41.307Z,4.84
2023-01-08T01:58:43.097Z,4.74
2023-01-08T02:00:44.871Z,4.82
2023-01-08T02:02:46.692Z,5.07
2023-01-08T02:04:48.095Z,5.18
2023-01-08T02:06:49.739Z,5.05
2023-01-08T02:08:51.417Z,5.12
2023-01-08T02:10:52.577Z,5.3
2023-01-08T02:12:54.036Z,4.8
2023-01-08T02:14:55.998Z,4.53
2023-01-08T02:16:57.724Z,4.39
2023-01-08T02:18:58.708Z,4.31
2023-01-08T02:21:00.278Z,4.25
2023-01-08T02:21:44.155Z,4.29
2023-01-08T02:23:45.668Z,4.48
2023-01-08T02:25:47.505Z,4.61
2023-01-08T02:27:49.236Z,4.66
2023-01-08T02:29:51.004Z,4.8
2023-01-08T02:31:52.582Z,4.85
2023-01-08T02:33:53.782Z,4.74
2023-01-08T02:35:55.076Z,5.46
2023-01-08T02:37:56.826Z,5.76
2023-01-08T02:39:57.854Z,5.82
2023-01-08T02:41:59.088Z,5.74
2023-01-08T02:44:00.746Z,5.51
2023-01-08T02:46:02.643Z,5.63
2023-01-08T02:48:04.544Z,5.5
2023-01-08T02:50:06.071Z,5.79
2023-01-08T02:52:07.644Z,5.77
2023-01-08T02:54:08.928Z,5.85
2023-01-08T02:56:10.186Z,5.98
2023-01-08T02:58:11.592Z,6.08
2023-01-08T03:00:12.821Z,6.29
2023-01-08T03:02:14.594Z,6.34
2023-01-08T03:04:15.580Z,6.38
2023-01-08T03:06:17.013Z,6.33
2023-01-08T03:08:18.673Z,6.69
2023-01-08T03:10:19.705Z,6.62
2023-01-08T03:12:21.668Z,6.58
2023-01-08T03:14:23.607Z,6.51
2023-01-08T03:16:24.901Z,6.36
2023-01-08T03:18:26.356Z,6.41
2023-01-08T03:20:28.254Z,6.37
2023-01-08T03:22:29.267Z,6.55
2023-01-08T03:24:30.405Z,6.55
2023-01-08T03:26:32.168Z,6.44
2023-01-08T03:28:33.979Z,6.35
2023-01-08T03:30:35.524Z,6.31
2023-01-08T03:32:37.203Z,6.27
2023-01-08T03:34:39.101Z,6.23
2023-01-08T03:36:40.956Z,6.33
2023-01-08T03:38:42.240Z,6.28
2023-01-08T03:40:43.790Z,6.43
2023-01-08T03:42:45.317Z,6.71
2023-01-08T03:44:46.671Z,6.64
2023-01-08T03:46:48.202Z,6.5
2023-01-08T03:48:49.902Z,6.62
2023-01-08T03:50:51.877Z,6.71
2023-01-08T03:52:53.748Z,6.66
2023-01-08T03:54:55.558Z,6.51
2023-01-08T03:56:57.257Z,6.46
2023-01-08T03:58:58.903Z,6.04
2023-01-08T04:01:00.608Z,6.28
2023-01-08T04:03:05.024Z,6.3
2023-01-08T04:05:04.040Z,6.24
2023-01-08T04:07:05.623Z,5.83
2023-01-08T04:09:06.963Z,5.98
2023-01-08T04:11:08.028Z,6.11
2023-01-08T04:13:09.522Z,6.16
2023-01-08T04:15:10.785Z,6.29
2023-01-08T04:17:12.692Z,6.58
2023-01-08T04:19:14.146Z,6.36
2023-01-08T04:21:15.130Z,6.3
2023-01-08T04:23:24.628Z,6.31
2023-01-08T04:25:18.323Z,6.05
2023-01-08T04:27:19.822Z,6.28
2023-01-08T04:29:20.978Z,6.19
2023-01-08T04:31:22.783Z,5.96
2023-01-08T04:33:23.975Z,5.83
2023-01-08T04:35:25.849Z,5.88
2023-01-08T04:37:27.423Z,5.94
2023-01-08T04:39:29.030Z,6.11
2023-01-08T04:41:30.051Z,6.27
2023-01-08T04:43:31.994Z,6.5
2023-01-08T04:45:33.796Z,6.46
2023-01-08T04:47:35.508Z,6.09
2023-01-08T04:49:36.711Z,5.7
2023-01-08T04:51:38.206Z,5.66
2023-01-08T04:53:40.128Z,5.59
2023-01-08T04:55:41.785Z,5.53
2023-01-08T04:57:42.832Z,5.51
2023-01-08T04:59:44.642Z,5.44
2023-01-08T05:01:46.646Z,5.4
2023-01-08T05:03:47.960Z,5.49
2023-01-08T05:05:49.924Z,5.99
2023-01-08T05:07:50.963Z,6.12
2023-01-08T05:09:52.372Z,6.3
2023-01-08T05:11:53.950Z,6.19
2023-01-08T05:13:55.844Z,6.18
2023-01-08T05:15:57.783Z,6.1
2023-01-08T05:17:58.804Z,6.08
2023-01-08T05:20:00.136Z,6.09
2023-01-08T05:22:01.639Z,6.08
2023-01-08T05:24:02.870Z,6.05
2023-01-08T05:26:04.257Z,5.96
2023-01-08T05:28:05.714Z,5.92
2023-01-08T05:30:06.893Z,5.87
2023-01-08T05:32:08.187Z,5.99
2023-01-08T05:34:09.531Z,5.95
2023-01-08T05:36:11.341Z,6.04
2023-01-08T05:38:13.328Z,6.07
2023-01-08T05:40:15.219Z,6.15
2023-01-08T05:42:16.750Z,6.28
2023-01-08T05:44:18.184Z,6.35
2023-01-08T05:46:19.297Z,6.34
2023-01-08T05:48:20.961Z,6.15
2023-01-08T05:50:22.058Z,6.03
2023-01-08T05:52:23.813Z,5.84
2023-01-08T05:54:25.673Z,5.81
2023-01-08T05:56:27.310Z,5.8
2023-01-08T05:58:29.161Z,5.79
2023-01-08T06:00:30.550Z,5.82
2023-01-08T06:02:31.911Z,5.85
2023-01-08T06:04:33.799Z,5.81
2023-01-08T06:06:34.877Z,5.92
2023-01-08T06:08:36.448Z,6.26
2023-01-08T06:10:37.960Z,6.42
2023-01-08T06:12:39.259Z,6.71
2023-01-08T06:14:40.685Z,6.83
2023-01-08T06:16:41.887Z,6.99
2023-01-08T06:18:43.835Z,7.09
2023-01-08T06:20:45.325Z,7.19
2023-01-08T06:22:47.088Z,7.34
2023-01-08T06:24:48.598Z,7.46
2023-01-08T06:26:50.278Z,7.6
2023-01-08T06:28:51.648Z,7.87
2023-01-08T06:30:53.213Z,7.79
2023-01-08T06:32:54.074Z,7.74
2023-01-08T06:34:55.859Z,7.9
2023-01-08T06:36:57.355Z,7.79
2023-01-08T06:38:58.787Z,7.9
2023-01-08T06:41:00.323Z,7.78
2023-01-08T06:43:01.450Z,7.71
2023-01-08T06:45:03.041Z,7.71
2023-01-08T06:47:04.348Z,7.7
2023-01-08T06:49:06.113Z,7.77
2023-01-08T06:53:08.453Z,7.62
2023-01-08T06:55:10.226Z,7.53
2023-01-08T06:57:11.500Z,7.52
2023-01-08T06:59:13.370Z,7.59
2023-01-08T07:01:14.981Z,7.69
2023-01-08T07:03:16.529Z,7.72
2023-01-08T07:05:17.932Z,7.6
2023-01-08T07:07:19.607Z,7.58
2023-01-08T07:09:20.613Z,7.76
2023-01-08T07:11:21.987Z,7.77
2023-01-08T07:13:23.332Z,7.72
2023-01-08T07:15:24.282Z,7.64
2023-01-08T07:17:25.396Z,7.69
2023-01-08T07:19:26.966Z,7.57
2023-01-08T07:21:28.447Z,7.57
2023-01-08T07:23:30.332Z,7.56
2023-01-08T07:25:31.687Z,7.54
2023-01-08T07:27:33.393Z,7.6
2023-01-08T07:29:35.186Z,7.51
2023-01-08T07:31:36.232Z,7.38
2023-01-08T07:33:37.349Z,7.34
2023-01-08T07:35:38.368Z,7.32
2023-01-08T07:37:39.957Z,7.3
2023-01-08T07:39:40.961Z,7.36
2023-01-08T07:41:42.740Z,7.47
2023-01-08T07:43:44.575Z,7.46
2023-01-08T07:45:45.917Z,7.39
2023-01-08T07:47:47.662Z,7.4
2023-01-08T07:49:49.096Z,7.39
2023-01-08T07:51:51.128Z,7.42
2023-01-08T07:53:52.730Z,7.42
2023-01-08T07:55:53.771Z,7.45
2023-01-08T07:57:54.919Z,7.5
2023-01-08T07:59:56.147Z,7.54
2023-01-08T08:01:58.181Z,7.6
2023-01-08T08:03:59.703Z,7.69
2023-01-08T08:06:00.645Z,7.69
2023-01-08T08:08:02.064Z,7.63
2023-01-08T08:10:03.209Z,7.73
2023-01-08T08:12:04.747Z,7.76
2023-01-08T08:14:06.416Z,7.76
2023-01-08T08:16:07.651Z,7.81
2023-01-08T08:18:08.616Z,7.85
2023-01-08T08:20:09.607Z,7.85
2023-01-08T08:22:10.569Z,7.9
2023-01-08T08:24:12.344Z,8.03
2023-01-08T08:26:13.327Z,8.01
2023-01-08T08:28:15.214Z,8.03
2023-01-08T08:30:16.886Z,8
2023-01-08T08:32:17.936Z,8.02
2023-01-08T08:34:18.994Z,8.15
2023-01-08T08:36:20.592Z,8.18
2023-01-08T08:38:23.936Z,8.07
2023-01-08T08:40:23.923Z,8.1
2023-01-08T08:42:25.737Z,8.08
2023-01-08T08:44:26.708Z,8.07
2023-01-08T08:46:28.276Z,8.19
2023-01-08T08:48:29.412Z,8.16
2023-01-08T08:50:40.125Z,8.17
2023-01-08T08:52:32.666Z,8.12
2023-01-08T08:54:34.396Z,8.09
2023-01-08T08:56:35.643Z,8.11
2023-01-08T08:58:36.731Z,8.16
2023-01-08T09:00:37.754Z,8.11
2023-01-08T09:02:39.228Z,8.11
2023-01-08T09:04:40.133Z,8.12
2023-01-08T09:06:41.136Z,8.12
2023-01-08T09:11:28.087Z,8.12
2023-01-08T09:13:29.468Z,8.19
2023-01-08T09:15:31.204Z,8.17
2023-01-08T09:17:32.917Z,8.16
2023-01-08T09:19:34.221Z,8.11
2023-01-08T09:21:35.719Z,8.17
2023-01-08T09:23:36.992Z,8.28
2023-01-08T09:25:38.543Z,8.26
2023-01-08T09:27:39.713Z,8.17
2023-01-08T09:29:41.590Z,8.18
2023-01-08T09:31:43.021Z,8.17
2023-01-08T09:33:44.915Z,8.26
2023-01-08T09:35:46.001Z,8.27
2023-01-08T09:37:47.158Z,8.33
2023-01-08T09:39:54.319Z,8.26
2023-01-08T09:41:50.353Z,8.27
2023-01-08T09:43:51.416Z,8.24
2023-01-08T09:45:53.238Z,8.26
2023-01-08T09:47:54.916Z,8.27
2023-01-08T09:49:55.998Z,8.33
2023-01-08T09:51:57.783Z,8.35
2023-01-08T09:53:59.288Z,8.3
2023-01-08T09:56:09.562Z,8.3
2023-01-08T09:58:03.270Z,8.3
2023-01-08T10:00:02.871Z,8.33
2023-01-08T10:02:04.863Z,8.36
2023-01-08T10:04:06.198Z,8.36
2023-01-08T10:06:07.535Z,8.43
2023-01-08T10:08:08.706Z,8.39
2023-01-08T10:10:09.685Z,8.39
2023-01-08T10:12:11.420Z,8.39
2023-01-08T10:14:13.359Z,8.37
2023-01-08T10:16:14.420Z,8.44
2023-01-08T10:18:15.725Z,8.43
2023-01-08T10:20:17.521Z,8.45
2023-01-08T10:22:19.126Z,8.48
2023-01-08T10:24:20.741Z,8.52
2023-01-08T10:26:21.883Z,8.5
2023-01-08T10:28:23.522Z,8.41
2023-01-08T10:30:25.110Z,8.42
2023-01-08T10:32:26.404Z,8.5
2023-01-08T10:34:27.644Z,8.51
2023-01-08T10:36:28.808Z,8.53
2023-01-08T10:38:32.190Z,8.53
2023-01-08T10:40:31.602Z,8.56
2023-01-08T10:42:33.108Z,8.55
2023-01-08T10:44:34.495Z,8.58
2023-01-08T10:46:35.698Z,8.61
2023-01-08T10:48:37.422Z,8.65
2023-01-08T10:50:38.743Z,8.59
2023-01-08T10:52:40.069Z,8.6
2023-01-08T10:54:41.109Z,8.6
2023-01-08T10:56:42.451Z,8.57
2023-01-08T10:58:43.733Z,8.66
2023-01-08T11:00:45.057Z,8.61
2023-01-08T11:02:46.934Z,8.68
2023-01-08T11:04:48.624Z,8.69
2023-01-08T11:06:49.853Z,8.71
2023-01-08T11:08:51.675Z,8.69
2023-01-08T11:10:52.733Z,8.63
2023-01-08T11:12:54.470Z,8.75
2023-01-08T11:14:56.378Z,8.75
2023-01-08T11:16:57.687Z,8.76
2023-01-08T11:18:59.400Z,8.76
2023-01-08T11:21:01.186Z,8.8
2023-01-08T11:23:02.528Z,8.77
2023-01-08T11:25:03.647Z,8.76
2023-01-08T11:27:05.401Z,8.7
2023-01-08T11:29:07.184Z,8.7
2023-01-08T11:31:08.519Z,8.66
2023-01-08T11:33:10.189Z,8.74
2023-01-08T11:35:11.553Z,8.7
2023-01-08T11:37:12.977Z,8.66
2023-01-08T11:39:14.857Z,8.63
2023-01-08T11:41:16.653Z,8.7
2023-01-08T11:43:17.724Z,8.73
2023-01-08T11:45:19.618Z,8.79
2023-01-08T11:47:21.429Z,8.78
2023-01-08T11:49:22.494Z,8.8
2023-01-08T11:51:24.245Z,8.86
2023-01-08T11:53:25.732Z,8.85
2023-01-08T11:55:26.683Z,8.83
2023-01-08T11:57:27.630Z,8.89
2023-01-08T11:59:29.324Z,8.84
2023-01-08T12:01:30.819Z,8.9
2023-01-08T12:03:31.999Z,8.9
2023-01-08T12:05:33.041Z,9.01
2023-01-08T12:07:34.176Z,9.06
2023-01-08T12:09:36.044Z,9.1
2023-01-08T12:11:37.387Z,9.1
2023-01-08T12:13:38.897Z,9.14
2023-01-08T12:15:40.000Z,9.15
2023-01-08T12:17:41.797Z,9.15
2023-01-08T12:19:42.889Z,9.25
2023-01-08T12:21:44.476Z,9.19
2023-01-08T12:23:45.845Z,9.25
2023-01-08T12:25:47.230Z,9.28
2023-01-08T12:27:56.664Z,9.26
2023-01-08T12:29:50.488Z,9.33
2023-01-08T12:32:01.479Z,9.3
2023-01-08T12:33:53.303Z,9.19
2023-01-08T12:35:54.683Z,9.26
2023-01-08T12:38:05.370Z,9.33
2023-01-08T12:39:58.125Z,9.34
2023-01-08T12:41:59.657Z,9.33
2023-01-08T12:44:01.035Z,9.38
2023-01-08T12:46:02.070Z,9.31
2023-01-08T12:48:03.511Z,9.42
2023-01-08T12:50:04.620Z,9.49
2023-01-08T12:52:14.070Z,9.45
2023-01-08T12:54:07.313Z,9.46
2023-01-08T12:56:08.729Z,9.43
2023-01-08T12:58:10.371Z,9.41
2023-01-08T13:00:11.416Z,9.43
2023-01-08T13:02:12.600Z,9.41
2023-01-08T13:04:13.508Z,9.39
2023-01-08T13:06:15.129Z,9.42
2023-01-08T13:08:16.539Z,9.53
2023-01-08T13:10:19.286Z,9.69
2023-01-08T13:12:20.502Z,9.9
2023-01-08T13:14:21.420Z,9.91
2023-01-08T13:16:23.232Z,9.78
2023-01-08T13:18:25.044Z,9.7
2023-01-08T13:20:26.149Z,9.75
2023-01-08T13:22:27.444Z,9.61
2023-01-08T13:24:28.981Z,9.61
2023-01-08T13:26:30.321Z,9.62
2023-01-08T13:28:31.593Z,9.56
2023-01-08T13:30:32.578Z,9.49
2023-01-08T13:32:34.467Z,9.5
2023-01-08T13:34:35.711Z,9.48
2023-01-08T13:36:36.939Z,9.45
2023-01-08T13:38:37.950Z,9.44
2023-01-08T13:40:39.650Z,9.44
2023-01-08T13:42:41.549Z,9.43
2023-01-08T13:44:43.307Z,9.43
2023-01-08T13:46:45.026Z,9.38
2023-01-08T13:48:46.331Z,9.38
2023-01-08T13:50:47.985Z,9.38
2023-01-08T13:52:48.926Z,9.38
2023-01-08T13:54:50.581Z,9.36
2023-01-08T13:56:53.916Z,9.38
2023-01-08T13:58:53.055Z,9.36
2023-01-08T14:00:54.041Z,9.31
2023-01-08T14:02:55.803Z,9.33
2023-01-08T14:04:57.167Z,9.31
2023-01-08T14:06:58.638Z,9.3
2023-01-08T14:09:00.606Z,9.27
2023-01-08T14:11:01.770Z,9.26
2023-01-08T14:13:02.689Z,9.29
2023-01-08T14:15:04.150Z,9.29
2023-01-08T14:17:05.698Z,9.3
2023-01-08T14:19:06.728Z,9.34
2023-01-08T14:21:07.985Z,9.49
2023-01-08T14:23:09.209Z,9.53
2023-01-08T14:25:12.319Z,9.5
2023-01-08T14:27:12.248Z,9.49
2023-01-08T14:29:13.838Z,9.43
2023-01-08T14:31:14.853Z,9.42
2023-01-08T14:33:16.170Z,9.42
2023-01-08T14:35:17.324Z,9.39
2023-01-08T14:37:19.192Z,9.38
2023-01-08T14:41:21.277Z,9.34
2023-01-08T14:43:23.094Z,9.34
2023-01-08T14:45:24.927Z,9.39
2023-01-08T14:47:26.059Z,9.38
2023-01-08T14:49:26.962Z,9.3
2023-01-08T14:51:28.476Z,9.3
2023-01-08T14:53:29.620Z,9.3
2023-01-08T14:55:31.302Z,9.29
2023-01-08T14:57:32.501Z,9.31
2023-01-08T14:59:34.410Z,9.31
2023-01-08T15:01:36.283Z,9.28
2023-01-08T15:03:37.168Z,9.3
2023-01-08T15:05:39.011Z,9.29
2023-01-08T15:07:40.412Z,9.34
2023-01-08T15:09:41.492Z,9.3
2023-01-08T15:11:42.968Z,9.3
2023-01-08T15:13:44.472Z,9.26
2023-01-08T15:15:47.511Z,9.3
2023-01-08T15:17:47.451Z,9.23
2023-01-08T15:19:48.474Z,9.19
2023-01-08T15:21:49.608Z,9.15
2023-01-08T15:23:51.395Z,9.13
2023-01-08T15:25:52.355Z,9.2
2023-01-08T15:27:53.395Z,9.11
2023-01-08T15:29:54.554Z,9.07
2023-01-08T15:31:55.630Z,9.21
2023-01-08T15:33:57.102Z,9.21
2023-01-08T15:35:58.198Z,9.28
2023-01-08T15:37:59.209Z,9.2
2023-01-08T15:40:00.969Z,9.23
2023-01-08T15:42:02.767Z,9.26
2023-01-08T15:44:04.609Z,9.2
2023-01-08T15:46:05.802Z,9.22
2023-01-08T15:48:06.909Z,9.25
2023-01-08T15:50:08.466Z,9.25
2023-01-08T15:52:09.774Z,9.23
2023-01-08T15:54:55.229Z,9.14
2023-01-08T15:56:56.232Z,9.13
2023-01-08T15:58:57.763Z,9.15
2023-01-08T16:00:59.178Z,9.12
2023-01-08T16:03:00.482Z,9.07
2023-01-08T16:05:01.944Z,9.09
2023-01-08T16:07:03.630Z,9.08
2023-01-08T16:09:04.999Z,9.09
2023-01-08T16:11:06.793Z,9.1
2023-01-08T16:13:10.274Z,9.1
2023-01-08T16:15:09.927Z,9.15
2023-01-08T16:17:10.862Z,9.22
2023-01-08T16:19:11.813Z,9.15
2023-01-08T16:21:13.095Z,9.16
2023-01-08T16:23:14.241Z,9.21
2023-01-08T16:25:15.401Z,9.19
2023-01-08T16:27:16.888Z,9.19
2023-01-08T16:29:18.017Z,9.17
2023-01-08T16:31:19.123Z,9.18
2023-01-08T16:33:20.824Z,9.15
2023-01-08T16:35:22.239Z,9.19
2023-01-08T16:37:23.376Z,9.15
2023-01-08T16:39:24.512Z,9.1
2023-01-08T16:41:25.838Z,9.15
2023-01-08T16:43:27.714Z,9.17
2023-01-08T16:45:29.317Z,9.19
2023-01-08T16:47:30.578Z,9.19
2023-01-08T16:49:32.298Z,9.21
2023-01-08T16:51:34.140Z,9.27
2023-01-08T16:53:35.973Z,9.24
2023-01-08T16:55:37.007Z,9.2
2023-01-08T16:57:38.463Z,9.12
2023-01-08T16:59:39.696Z,9.15
2023-01-08T17:01:40.741Z,9.22
2023-01-08T17:03:42.513Z,9.12
2023-01-08T17:05:43.904Z,9.22
2023-01-08T17:07:44.857Z,9.25
2023-01-08T17:09:46.773Z,9.26
2023-01-08T17:11:48.014Z,9.33
2023-01-08T17:13:49.778Z,9.33
2023-01-08T17:15:51.172Z,9.32
2023-01-08T17:17:52.656Z,9.33
2023-01-08T17:19:54.224Z,9.42
2023-01-08T17:21:55.439Z,9.35
2023-01-08T17:23:56.748Z,9.3
2023-01-08T17:25:57.881Z,9.47
2023-01-08T17:27:59.526Z,9.34
2023-01-08T17:30:00.800Z,9.42
2023-01-08T17:32:02.308Z,9.29
2023-01-08T17:34:03.640Z,9.32
2023-01-08T17:36:04.779Z,9.26
2023-01-08T17:38:06.387Z,9.01
2023-01-08T17:40:07.597Z,8.9
2023-01-08T17:42:08.681Z,8.88
2023-01-08T17:44:10.168Z,8.92
2023-01-08T17:46:11.891Z,8.94
2023-01-08T17:48:13.137Z,8.96
2023-01-08T17:50:14.607Z,8.99
2023-01-08T17:52:15.733Z,8.85
2023-01-08T17:54:17.611Z,8.74
2023-01-08T17:56:18.988Z,8.88
2023-01-08T17:58:20.688Z,8.84
2023-01-08T18:00:22.196Z,8.84
2023-01-08T18:02:23.495Z,8.55
2023-01-08T18:04:25.206Z,8.62
2023-01-08T18:06:26.968Z,8.67
2023-01-08T18:08:28.664Z,8.29
2023-01-08T18:10:30.117Z,8.35
2023-01-08T18:14:32.479Z,8.62
2023-01-08T18:16:33.617Z,8.47
2023-01-08T18:18:35.178Z,8.58
2023-01-08T18:20:36.114Z,8.47
2023-01-08T18:22:37.960Z,8.32
2023-01-08T18:24:39.242Z,8.43
2023-01-08T18:26:40.177Z,8.41
2023-01-08T18:28:41.748Z,8.29
2023-01-08T18:30:43.261Z,8.14
2023-01-08T18:32:44.597Z,8.18
2023-01-08T18:34:45.840Z,8.05
2023-01-08T18:36:47.247Z,8.2
2023-01-08T18:38:48.268Z,8.16
2023-01-08T18:40:49.570Z,8
2023-01-08T18:42:50.550Z,7.87
2023-01-08T18:44:52.248Z,7.81
2023-01-08T18:46:53.340Z,7.96
2023-01-08T18:48:54.632Z,7.95
2023-01-08T18:50:56.417Z,7.9
2023-01-08T18:52:58.138Z,7.84
2023-01-08T18:54:59.420Z,7.8
2023-01-08T18:57:01.117Z,7.74
2023-01-08T18:59:02.431Z,7.62
2023-01-08T19:01:03.669Z,7.48
2023-01-08T19:03:05.332Z,7.43
2023-01-08T19:05:06.854Z,7.62
2023-01-08T19:07:07.955Z,7.65
2023-01-08T19:09:09.754Z,7.74
2023-01-08T19:11:11.338Z,7.81
2023-01-08T19:13:12.901Z,7.71
2023-01-08T19:15:14.845Z,7.31
2023-01-08T19:17:16.736Z,7.56
2023-01-08T19:19:19.253Z,7.7
2023-01-08T19:21:19.234Z,7.82
2023-01-08T19:23:20.179Z,7.8
2023-01-08T19:25:21.772Z,7.58
2023-01-08T19:27:23.081Z,6.95
2023-01-08T19:29:24.399Z,7.5
2023-01-08T19:31:26.162Z,7.22
2023-01-08T19:33:27.330Z,7.05
2023-01-08T19:35:28.580Z,7.51
2023-01-08T19:37:29.843Z,7.74
2023-01-08T19:39:31.230Z,7.84
2023-01-08T19:41:32.724Z,7.9
2023-01-08T19:43:34.177Z,7.8
2023-01-08T19:45:35.941Z,7.84
2023-01-08T19:47:37.415Z,7.84
2023-01-08T19:49:38.374Z,7.81
2023-01-08T19:51:39.685Z,7.83
2023-01-08T19:53:41.125Z,7.76
2023-01-08T19:55:42.504Z,7.74
2023-01-08T19:57:43.515Z,7.6
2023-01-08T19:59:44.484Z,7.58
2023-01-08T20:01:46.095Z,7.5
2023-01-08T20:03:47.122Z,7.47
2023-01-08T20:05:48.933Z,7.63
2023-01-08T20:07:50.529Z,7.72
2023-01-08T20:09:52.347Z,7.73
2023-01-08T20:11:53.657Z,7.74
2023-01-08T20:13:55.269Z,7.69
2023-01-08T20:15:56.368Z,7.61
2023-01-08T20:17:58.182Z,7.53
2023-01-08T20:19:59.690Z,7.5
2023-01-08T20:22:01.628Z,7.18
2023-01-08T20:24:02.912Z,7.49
2023-01-08T20:26:04.798Z,7.3
2023-01-08T20:28:05.803Z,7.37
2023-01-08T20:30:06.900Z,7.32
2023-01-08T20:32:08.820Z,7.26
2023-01-08T20:34:10.053Z,7.19
2023-01-08T20:36:11.920Z,7.21
2023-01-08T20:38:13.171Z,7.24
2023-01-08T20:40:14.747Z,7.61
2023-01-08T20:42:17.742Z,7.69
2023-01-08T20:44:17.623Z,7.59
2023-01-08T20:46:18.667Z,7.66
2023-01-08T20:48:19.902Z,7.71
2023-01-08T20:50:21.595Z,7.75
2023-01-08T20:52:22.825Z,7.81
2023-01-08T20:54:24.002Z,7.73
2023-01-08T20:56:25.653Z,7.78
2023-01-08T20:58:27.525Z,7.54
2023-01-08T21:00:28.513Z,7.64
2023-01-08T21:02:30.073Z,7.64
2023-01-08T21:04:31.744Z,7.69
2023-01-08T21:06:33.540Z,7.68
2023-01-08T21:08:35.217Z,7.72
2023-01-08T21:10:36.856Z,7.88
2023-01-08T21:12:38.585Z,7.77
2023-01-08T21:14:40.114Z,7.7
2023-01-08T21:16:41.420Z,7.31
2023-01-08T21:20:44.950Z,7.56
2023-01-08T21:22:46.209Z,7.74
2023-01-08T21:24:47.415Z,7.76
2023-01-08T21:26:48.894Z,7.76
2023-01-08T21:28:49.976Z,7.8
2023-01-08T21:30:51.651Z,7.83
2023-01-08T21:32:52.723Z,7.8
2023-01-08T21:34:54.481Z,7.77
2023-01-08T21:36:56.237Z,7.71
2023-01-08T21:38:57.863Z,7.74
2023-01-08T21:40:59.604Z,7.75
2023-01-08T21:43:01.508Z,7.68
2023-01-08T21:45:02.706Z,7.72
2023-01-08T21:47:03.943Z,7.68
2023-01-08T21:49:05.695Z,7.75
2023-01-08T21:51:07.254Z,7.65
2023-01-08T21:53:08.767Z,7.74
2023-01-08T21:55:10.075Z,7.66
2023-01-08T21:57:11.176Z,7.67
2023-01-08T21:59:13.107Z,7.65
2023-01-08T22:03:15.873Z,7.69
2023-01-08T22:05:17.176Z,7.65
2023-01-08T22:07:18.782Z,7.66
2023-01-08T22:09:20.632Z,7.58
2023-01-08T22:11:22.644Z,7.46
2023-01-08T22:13:23.895Z,7.36
2023-01-08T22:15:25.456Z,7.3
2023-01-08T22:17:27.097Z,7.3
2023-01-08T22:19:28.649Z,7.29
2023-01-08T22:21:30.464Z,7.26
2023-01-08T22:23:31.422Z,7.27
2023-01-08T22:25:33.270Z,7.34
2023-01-08T22:27:34.999Z,7.33
2023-01-08T22:29:36.077Z,7.35
2023-01-08T22:31:38.008Z,7.31
2023-01-08T22:33:39.532Z,7.36
2023-01-08T22:35:40.729Z,7.31
2023-01-08T22:37:42.040Z,7.27
2023-01-08T22:40:27.309Z,7.23
2023-01-08T22:42:29.198Z,7.24
2023-01-08T22:44:30.298Z,7.22
2023-01-08T22:46:31.941Z,7.21
2023-01-08T22:48:33.315Z,7.14
2023-01-08T22:50:35.122Z,7.26
2023-01-08T22:52:36.506Z,7.22
2023-01-08T22:54:38.330Z,7.18
2023-01-08T22:56:39.445Z,7.26
2023-01-08T22:58:40.791Z,7.29
2023-01-08T23:00:42.409Z,7.34
2023-01-08T23:02:43.629Z,7.31
2023-01-08T23:04:45.344Z,7.27
2023-01-08T23:06:46.908Z,7.29
2023-01-08T23:08:48.138Z,7.35
2023-01-08T23:10:49.582Z,7.31
2023-01-08T23:12:51.067Z,7.3
2023-01-08T23:14:52.465Z,7.28
2023-01-08T23:16:53.883Z,7.27
2023-01-08T23:18:55.802Z,7.28
2023-01-08T23:20:57.384Z,7.25
2023-01-08T23:22:59.276Z,7.23
2023-01-08T23:25:00.968Z,7.22
2023-01-08T23:27:02.065Z,7.19
2023-01-08T23:29:03.909Z,7.23
2023-01-08T23:31:05.588Z,7.23
2023-01-08T23:33:06.858Z,7.24
2023-01-08T23:35:07.921Z,7.24
2023-01-08T23:39:11.115Z,7.2
2023-01-08T23:41:12.308Z,7.18
2023-01-08T23:43:13.719Z,7.16
2023-01-08T23:45:14.851Z,7.16
2023-01-08T23:47:16.747Z,7.16
2023-01-08T23:49:18.074Z,7.18
2023-01-08T23:51:19.196Z,7.2
2023-01-08T23:53:20.923Z,7.22
2023-01-08T23:55:22.852Z,7.19
2023-01-08T23:57:23.782Z,7.18
2023-01-08T23:59:24.881Z,7.21
